createdAt,value
2022-10-06T00:00:54.062Z,0.60
2022-10-06T00:03:24.705Z,0.43
2022-10-06T00:05:51.678Z,0.52
2022-10-06T00:08:18.908Z,0.98
2022-10-06T00:10:45.563Z,0.30
2022-10-06T00:13:12.488Z,0.52
2022-10-06T00:15:39.248Z,0.63
2022-10-06T00:18:05.968Z,0.50
2022-10-06T00:20:32.812Z,0.50
2022-10-06T00:22:59.598Z,0.45
2022-10-06T00:25:28.043Z,0.50
2022-10-06T00:27:54.963Z,0.50
2022-10-06T00:30:24.406Z,0.55
2022-10-06T00:33:02.201Z,0.50
2022-10-06T00:35:33.485Z,0.60
2022-10-06T00:38:01.634Z,0.63
2022-10-06T00:40:28.715Z,0.80
2022-10-06T00:43:04.395Z,0.68
2022-10-06T00:45:42.497Z,0.43
2022-10-06T00:48:18.079Z,0.50
2022-10-06T00:50:45.353Z,0.60
2022-10-06T00:53:13.562Z,0.60
2022-10-06T00:55:40.221Z,0.80
2022-10-06T00:58:07.729Z,0.70
2022-10-06T01:00:34.429Z,0.60
2022-10-06T01:03:15.206Z,1.10
2022-10-06T01:05:48.479Z,0.73
2022-10-06T01:08:15.799Z,0.68
2022-10-06T01:10:43.158Z,0.90
2022-10-06T01:13:11.821Z,0.75
2022-10-06T01:15:47.689Z,1.08
2022-10-06T01:18:18.526Z,0.90
2022-10-06T01:21:10.389Z,0.90
2022-10-06T01:23:38.901Z,1.20
2022-10-06T01:26:10.163Z,1.20
2022-10-06T01:28:39.182Z,0.90
2022-10-06T01:31:08.253Z,0.85
2022-10-06T01:33:35.156Z,0.85
2022-10-06T01:36:02.410Z,1.08
2022-10-06T01:38:29.381Z,0.95
2022-10-06T01:41:01.039Z,1.08
2022-10-06T01:43:27.849Z,1.05
2022-10-06T01:45:56.715Z,0.80
2022-10-06T01:48:24.224Z,1.30
2022-10-06T01:50:51.680Z,0.95
2022-10-06T01:53:18.920Z,1.23
2022-10-06T01:55:46.317Z,1.08
2022-10-06T01:58:17.350Z,0.77
2022-10-06T02:00:44.690Z,1.35
2022-10-06T02:03:11.648Z,0.95
2022-10-06T02:05:38.274Z,1.13
2022-10-06T02:08:05.447Z,1.15
2022-10-06T02:10:34.305Z,1.23
2022-10-06T02:13:02.790Z,1.20
2022-10-06T02:15:32.993Z,1.50
2022-10-06T02:17:59.784Z,1.33
2022-10-06T02:20:27.695Z,1.20
2022-10-06T02:22:54.271Z,1.63
2022-10-06T02:25:20.950Z,1.20
2022-10-06T02:27:48.465Z,1.38
2022-10-06T02:30:16.833Z,1.05
2022-10-06T02:32:45.959Z,1.20
2022-10-06T02:35:13.579Z,1.40
2022-10-06T02:37:44.318Z,1.10
2022-10-06T02:40:16.256Z,1.10
2022-10-06T02:42:45.401Z,1.20
2022-10-06T02:45:13.766Z,1.20
2022-10-06T02:47:40.418Z,1.35
2022-10-06T02:50:08.641Z,0.90
2022-10-06T02:52:38.053Z,1.00
2022-10-06T02:55:06.738Z,1.63
2022-10-06T02:57:33.363Z,1.23
2022-10-06T03:00:00.483Z,1.20
2022-10-06T03:02:32.918Z,1.17
2022-10-06T03:04:59.848Z,0.95
2022-10-06T03:07:27.489Z,1.25
2022-10-06T03:09:54.261Z,1.25
2022-10-06T03:12:23.157Z,1.45
2022-10-06T03:14:49.819Z,1.05
2022-10-06T03:17:16.532Z,1.17
2022-10-06T03:19:49.492Z,1.02
2022-10-06T03:22:16.543Z,1.23
2022-10-06T03:24:52.611Z,1.00
2022-10-06T03:27:20.830Z,1.17
2022-10-06T03:29:47.476Z,1.55
2022-10-06T03:32:15.493Z,0.93
2022-10-06T03:34:43.793Z,1.02
2022-10-06T03:37:13.469Z,0.82
2022-10-06T03:39:40.139Z,1.10
2022-10-06T03:42:06.975Z,1.15
2022-10-06T03:44:35.063Z,1.13
2022-10-06T03:47:02.431Z,0.90
2022-10-06T03:49:29.664Z,1.63
2022-10-06T03:51:56.446Z,1.48
2022-10-06T03:54:27.544Z,0.80
2022-10-06T03:56:54.540Z,1.60
2022-10-06T03:59:21.451Z,0.90
2022-10-06T04:01:49.822Z,0.93
2022-10-06T04:04:20.747Z,1.08
2022-10-06T04:06:51.378Z,1.65
2022-10-06T04:09:19.985Z,1.10
2022-10-06T04:11:47.271Z,1.20
2022-10-06T04:14:15.874Z,1.20
2022-10-06T04:16:45.418Z,1.42
2022-10-06T04:19:15.130Z,1.52
2022-10-06T04:21:50.813Z,1.65
2022-10-06T04:24:23.330Z,1.13
2022-10-06T04:26:52.251Z,1.50
2022-10-06T04:29:20.443Z,1.60
2022-10-06T04:31:51.873Z,1.40
2022-10-06T04:34:26.257Z,1.90
2022-10-06T04:36:53.792Z,1.60
2022-10-06T04:39:20.778Z,1.38
2022-10-06T04:41:47.637Z,1.35
2022-10-06T04:44:28.420Z,1.30
2022-10-06T04:46:58.107Z,1.33
2022-10-06T04:49:25.244Z,1.17
2022-10-06T04:51:53.431Z,1.10
2022-10-06T04:54:20.943Z,1.08
2022-10-06T04:56:51.054Z,1.38
2022-10-06T04:59:21.210Z,1.00
2022-10-06T05:01:48.804Z,1.23
2022-10-06T05:04:15.473Z,1.27
2022-10-06T05:06:42.897Z,1.40
2022-10-06T05:09:15.690Z,1.10
2022-10-06T05:11:48.065Z,1.13
2022-10-06T05:14:17.546Z,1.23
2022-10-06T05:16:47.357Z,1.42
2022-10-06T05:19:14.930Z,1.17
2022-10-06T05:21:42.309Z,1.30
2022-10-06T05:24:12.016Z,1.80
2022-10-06T05:26:38.762Z,1.55
2022-10-06T05:29:09.044Z,1.25
2022-10-06T05:31:38.898Z,1.10
2022-10-06T05:34:06.336Z,1.38
2022-10-06T05:36:33.900Z,1.40
2022-10-06T05:39:02.153Z,1.20
2022-10-06T05:41:37.550Z,1.50
2022-10-06T05:44:06.813Z,1.05
2022-10-06T05:46:35.436Z,1.73
2022-10-06T05:49:06.948Z,2.15
2022-10-06T05:51:35.447Z,1.95
2022-10-06T05:54:06.791Z,1.33
2022-10-06T05:56:36.014Z,1.27
2022-10-06T05:59:04.070Z,1.00
2022-10-06T06:01:34.892Z,1.45
2022-10-06T06:04:10.584Z,1.48
2022-10-06T06:06:44.680Z,1.63
2022-10-06T06:09:29.544Z,1.08
2022-10-06T06:11:59.943Z,1.73
2022-10-06T06:14:52.507Z,1.27
2022-10-06T06:17:23.261Z,1.30
2022-10-06T06:19:50.775Z,0.90
2022-10-06T06:22:17.465Z,1.20
2022-10-06T06:24:46.360Z,1.27
2022-10-06T06:27:14.167Z,1.17
2022-10-06T06:29:41.037Z,1.70
2022-10-06T06:32:10.569Z,1.08
2022-10-06T06:34:37.375Z,1.25
2022-10-06T06:37:08.517Z,1.20
2022-10-06T06:39:38.481Z,1.38
2022-10-06T06:42:08.316Z,1.50
2022-10-06T06:44:55.275Z,1.05
2022-10-06T06:47:28.137Z,1.50
2022-10-06T06:49:58.703Z,1.08
2022-10-06T06:52:26.140Z,1.40
2022-10-06T06:54:53.170Z,1.45
2022-10-06T06:57:19.783Z,1.70
2022-10-06T06:59:50.629Z,1.35
2022-10-06T07:02:18.232Z,1.48
2022-10-06T07:04:46.069Z,1.27
2022-10-06T07:07:15.967Z,1.70
2022-10-06T07:09:42.697Z,1.23
2022-10-06T07:12:13.329Z,1.85
2022-10-06T07:15:04.345Z,1.80
2022-10-06T07:17:54.863Z,1.48
2022-10-06T07:20:41.107Z,1.98
2022-10-06T07:23:34.501Z,1.60
2022-10-06T07:26:02.574Z,1.60
2022-10-06T07:28:32.314Z,1.55
2022-10-06T07:31:00.617Z,1.60
2022-10-06T07:33:31.065Z,1.60
2022-10-06T07:35:57.721Z,2.20
2022-10-06T07:38:25.888Z,1.42
2022-10-06T07:41:17.945Z,1.67
2022-10-06T07:43:42.944Z,1.52
2022-10-06T07:46:11.519Z,1.70
2022-10-06T07:48:43.070Z,1.45
2022-10-06T07:51:18.517Z,2.08
2022-10-06T07:53:50.125Z,1.92
2022-10-06T07:56:43.320Z,1.67
2022-10-06T07:59:10.003Z,2.00
2022-10-06T08:01:38.627Z,2.08
2022-10-06T08:04:06.798Z,1.98
2022-10-06T08:06:34.071Z,1.90
2022-10-06T08:09:00.948Z,1.80
2022-10-06T08:11:28.201Z,1.48
2022-10-06T08:13:54.816Z,2.42
2022-10-06T08:16:23.549Z,1.70
2022-10-06T08:18:53.131Z,2.15
2022-10-06T08:21:22.337Z,1.85
2022-10-06T08:23:50.660Z,1.88
2022-10-06T08:26:19.632Z,1.70
2022-10-06T08:28:48.769Z,1.75
2022-10-06T08:31:17.510Z,2.15
2022-10-06T08:33:45.469Z,1.65
2022-10-06T08:36:14.377Z,1.80
2022-10-06T08:38:41.440Z,1.65
2022-10-06T08:41:34.284Z,1.45
2022-10-06T08:44:05.464Z,1.83
2022-10-06T08:46:40.189Z,2.47
2022-10-06T08:49:11.704Z,1.90
2022-10-06T08:51:56.336Z,1.33
2022-10-06T08:55:10.125Z,1.80
2022-10-06T08:57:43.246Z,1.73
2022-10-06T09:00:14.229Z,1.98
2022-10-06T09:02:47.894Z,1.55
2022-10-06T09:05:25.469Z,1.80
2022-10-06T09:08:21.358Z,1.63
2022-10-06T09:11:03.722Z,1.55
2022-10-06T09:13:44.001Z,1.73
2022-10-06T09:16:17.563Z,2.08
2022-10-06T09:19:07.280Z,1.52
2022-10-06T09:21:40.130Z,1.83
2022-10-06T09:24:13.483Z,1.73
2022-10-06T09:26:44.027Z,1.60
2022-10-06T09:29:11.618Z,1.40
2022-10-06T09:31:42.002Z,1.98
2022-10-06T09:34:30.630Z,1.90
2022-10-06T09:37:03.661Z,1.70
2022-10-06T09:39:38.706Z,1.80
2022-10-06T09:42:29.548Z,2.05
2022-10-06T09:45:01.208Z,1.45
2022-10-06T09:47:36.654Z,1.63
2022-10-06T09:50:21.684Z,2.00
2022-10-06T09:53:06.116Z,1.90
2022-10-06T09:55:38.748Z,1.45
2022-10-06T09:58:39.091Z,1.75
2022-10-06T10:01:11.934Z,1.30
2022-10-06T10:04:08.932Z,1.55
2022-10-06T10:06:40.068Z,1.45
2022-10-06T10:09:26.214Z,1.63
2022-10-06T10:12:24.458Z,1.30
2022-10-06T10:15:01.984Z,1.30
2022-10-06T10:17:52.846Z,1.58
2022-10-06T10:20:34.414Z,1.17
2022-10-06T10:23:27.252Z,1.08
2022-10-06T10:26:17.865Z,1.50
2022-10-06T10:29:03.433Z,1.83
2022-10-06T10:31:48.011Z,1.38
2022-10-06T10:34:56.312Z,1.40
2022-10-06T10:37:53.623Z,1.40
2022-10-06T10:40:43.036Z,1.20
2022-10-06T10:43:17.338Z,1.10
2022-10-06T10:46:02.072Z,1.50
2022-10-06T10:48:36.389Z,1.42
2022-10-06T10:51:21.445Z,1.20
2022-10-06T10:53:58.440Z,1.38
2022-10-06T10:56:26.868Z,1.60
2022-10-06T10:59:05.317Z,1.60
2022-10-06T11:01:47.799Z,0.90
2022-10-06T11:04:14.679Z,1.48
2022-10-06T11:06:54.269Z,1.08
2022-10-06T11:09:42.167Z,1.05
2022-10-06T11:12:22.626Z,1.08
2022-10-06T11:15:04.823Z,0.90
2022-10-06T11:17:44.112Z,1.05
2022-10-06T11:20:19.797Z,1.50
2022-10-06T11:22:59.798Z,0.90
2022-10-06T11:25:41.408Z,1.10
2022-10-06T11:28:22.946Z,1.20
2022-10-06T11:31:02.920Z,1.00
2022-10-06T11:33:37.464Z,1.10
2022-10-06T11:36:13.578Z,1.13
2022-10-06T11:38:47.400Z,1.42
2022-10-06T11:41:28.693Z,1.40
2022-10-06T11:44:04.197Z,1.20
2022-10-06T11:46:48.201Z,1.17
2022-10-06T11:49:30.265Z,0.82
2022-10-06T11:52:08.285Z,1.42
2022-10-06T11:55:07.256Z,1.70
2022-10-06T11:57:35.388Z,0.90
2022-10-06T12:00:05.065Z,1.45
2022-10-06T12:02:34.739Z,2.03
2022-10-06T12:05:36.376Z,1.00
2022-10-06T12:07:57.697Z,1.60
2022-10-06T12:10:30.187Z,1.55
2022-10-06T12:13:31.870Z,1.15
2022-10-06T12:19:25.769Z,1.15
2022-10-06T12:22:09.851Z,0.90
2022-10-06T12:24:58.879Z,1.40
2022-10-06T12:28:02.874Z,0.82
2022-10-06T12:30:48.335Z,1.27
2022-10-06T12:33:19.648Z,1.20
2022-10-06T12:35:47.443Z,1.48
2022-10-06T12:38:35.178Z,1.20
2022-10-06T12:41:02.219Z,1.42
2022-10-06T12:43:34.955Z,1.23
2022-10-06T12:46:23.843Z,1.02
2022-10-06T12:49:04.401Z,1.20
2022-10-06T12:51:36.065Z,1.48
2022-10-06T12:54:19.464Z,1.30
2022-10-06T12:56:59.724Z,1.33
2022-10-06T12:59:35.189Z,1.10
2022-10-06T13:02:07.743Z,1.10
2022-10-06T13:04:49.232Z,1.00
2022-10-06T13:07:31.091Z,1.10
2022-10-06T13:10:21.014Z,1.00
2022-10-06T13:12:50.253Z,1.10
2022-10-06T13:15:41.368Z,1.20
2022-10-06T13:18:07.989Z,1.60
2022-10-06T13:20:53.086Z,1.60
2022-10-06T13:23:32.211Z,1.23
2022-10-06T13:26:17.618Z,1.30
2022-10-06T13:28:44.202Z,0.80
2022-10-06T13:31:21.457Z,1.00
2022-10-06T13:33:55.330Z,0.98
2022-10-06T13:36:23.496Z,0.98
2022-10-06T13:38:50.293Z,1.08
2022-10-06T13:41:25.750Z,1.15
2022-10-06T13:43:59.829Z,1.48
2022-10-06T13:46:29.611Z,1.65
2022-10-06T13:49:26.099Z,1.13
2022-10-06T13:51:54.377Z,1.00
2022-10-06T13:54:51.508Z,1.20
2022-10-06T13:57:36.727Z,1.50
2022-10-06T14:00:24.252Z,1.02
2022-10-06T14:02:54.733Z,1.33
2022-10-06T14:05:45.629Z,1.10
2022-10-06T14:08:12.177Z,1.00
2022-10-06T14:10:59.579Z,1.20
2022-10-06T14:13:37.878Z,1.33
2022-10-06T14:16:07.276Z,1.02
2022-10-06T14:18:38.592Z,1.15
2022-10-06T14:21:17.137Z,1.58
2022-10-06T14:23:53.965Z,1.20
2022-10-06T14:26:26.025Z,0.93
2022-10-06T14:28:53.594Z,1.10
2022-10-06T14:31:21.574Z,1.23
2022-10-06T14:33:51.935Z,1.10
2022-10-06T14:36:27.036Z,1.20
2022-10-06T14:38:55.330Z,1.40
2022-10-06T14:41:24.923Z,0.98
2022-10-06T14:43:55.910Z,1.33
2022-10-06T14:46:23.129Z,1.48
2022-10-06T14:48:51.293Z,0.98
2022-10-06T14:51:19.063Z,1.23
2022-10-06T14:53:55.220Z,1.05
2022-10-06T14:56:23.563Z,1.20
2022-10-06T14:58:50.880Z,1.10
2022-10-06T15:01:20.830Z,1.17
2022-10-06T15:03:52.501Z,1.10
2022-10-06T15:06:37.788Z,1.15
2022-10-06T15:09:05.133Z,1.00
2022-10-06T15:11:32.092Z,1.20
2022-10-06T15:13:59.171Z,1.52
2022-10-06T15:16:28.348Z,1.25
2022-10-06T15:18:55.413Z,1.23
2022-10-06T15:21:23.724Z,1.30
2022-10-06T15:23:58.276Z,1.30
2022-10-06T15:26:44.551Z,1.00
2022-10-06T15:29:12.116Z,1.30
2022-10-06T15:31:43.840Z,1.77
2022-10-06T15:34:12.710Z,1.60
2022-10-06T15:36:41.642Z,0.98
2022-10-06T15:39:10.649Z,1.30
2022-10-06T15:41:39.135Z,1.08
2022-10-06T15:44:07.093Z,1.05
2022-10-06T15:46:39.670Z,1.02
2022-10-06T15:49:14.874Z,1.10
2022-10-06T15:51:49.867Z,0.80
2022-10-06T15:54:25.110Z,1.30
2022-10-06T15:56:57.410Z,1.25
2022-10-06T15:59:25.660Z,1.10
2022-10-06T16:01:57.965Z,1.38
2022-10-06T16:04:28.931Z,1.30
2022-10-06T16:06:56.077Z,1.20
2022-10-06T16:09:25.259Z,1.30
2022-10-06T16:11:52.899Z,1.23
2022-10-06T16:14:20.154Z,0.82
2022-10-06T16:16:48.033Z,1.25
2022-10-06T16:19:16.152Z,1.10
2022-10-06T16:21:43.632Z,0.82
2022-10-06T16:24:10.499Z,1.50
2022-10-06T16:26:37.707Z,1.08
2022-10-06T16:29:04.789Z,1.15
2022-10-06T16:31:31.877Z,1.25
2022-10-06T16:33:58.594Z,1.00
2022-10-06T16:36:25.511Z,1.17
2022-10-06T16:38:53.742Z,1.45
2022-10-06T16:41:21.260Z,1.40
2022-10-06T16:43:50.318Z,1.48
2022-10-06T16:46:20.957Z,1.15
2022-10-06T16:48:48.845Z,1.30
2022-10-06T16:51:20.361Z,0.80
2022-10-06T16:54:07.899Z,1.02
2022-10-06T16:56:40.294Z,1.00
2022-10-06T16:59:14.965Z,0.90
2022-10-06T17:01:42.003Z,0.98
2022-10-06T17:04:14.182Z,1.08
2022-10-06T17:06:49.921Z,1.08
2022-10-06T17:09:19.064Z,1.08
2022-10-06T17:11:48.732Z,1.20
2022-10-06T17:14:15.900Z,0.90
2022-10-06T17:16:44.962Z,1.23
2022-10-06T17:19:14.205Z,1.20
2022-10-06T17:21:46.241Z,1.00
2022-10-06T17:24:14.400Z,1.35
2022-10-06T17:26:42.658Z,1.15
2022-10-06T17:29:21.221Z,1.05
2022-10-06T17:31:50.484Z,1.20
2022-10-06T17:34:21.721Z,0.85
2022-10-06T17:36:51.366Z,1.10
2022-10-06T17:39:22.689Z,0.95
2022-10-06T17:41:51.758Z,1.15
2022-10-06T17:44:23.758Z,1.25
2022-10-06T17:46:56.154Z,2.13
2022-10-06T17:49:23.987Z,1.38
2022-10-06T17:51:52.449Z,1.60
2022-10-06T17:54:21.696Z,1.52
2022-10-06T17:56:51.154Z,1.88
2022-10-06T17:59:22.128Z,2.30
2022-10-06T18:01:50.915Z,2.08
2022-10-06T18:04:18.309Z,2.83
2022-10-06T18:06:46.638Z,3.75
2022-10-06T18:09:14.674Z,3.55
2022-10-06T18:11:43.836Z,4.15
2022-10-06T18:14:12.926Z,4.78
2022-10-06T18:16:41.246Z,4.32
2022-10-06T18:19:13.743Z,4.95
2022-10-06T18:21:42.642Z,5.40
2022-10-06T18:24:18.604Z,5.60
2022-10-06T18:26:48.084Z,5.47
2022-10-06T18:29:16.796Z,5.07
2022-10-06T18:31:43.995Z,5.10
2022-10-06T18:36:58.561Z,4.57
2022-10-06T18:39:25.362Z,4.38
2022-10-06T18:41:52.414Z,3.75
2022-10-06T18:44:38.997Z,3.67
2022-10-06T18:47:24.135Z,3.58
2022-10-06T18:49:52.797Z,2.35
2022-10-06T18:52:20.831Z,3.33
2022-10-06T18:54:48.909Z,2.13
2022-10-06T18:57:16.554Z,1.98
2022-10-06T18:59:43.311Z,2.40
2022-10-06T19:02:10.820Z,2.00
2022-10-06T19:04:39.116Z,1.73
2022-10-06T19:07:05.895Z,1.85
2022-10-06T19:09:32.754Z,1.48
2022-10-06T19:12:01.759Z,1.80
2022-10-06T19:14:35.873Z,1.70
2022-10-06T19:17:14.684Z,1.90
2022-10-06T19:19:55.169Z,1.63
2022-10-06T19:22:24.588Z,1.60
2022-10-06T19:24:52.910Z,1.45
2022-10-06T19:27:24.920Z,1.52
2022-10-06T19:29:54.225Z,1.20
2022-10-06T19:32:25.259Z,1.17
2022-10-06T19:34:52.220Z,1.17
2022-10-06T19:37:19.385Z,1.20
2022-10-06T19:39:48.021Z,1.08
2022-10-06T19:42:36.566Z,1.55
2022-10-06T19:45:04.818Z,1.80
2022-10-06T19:47:31.406Z,2.22
2022-10-06T19:50:01.603Z,1.92
2022-10-06T19:52:30.994Z,1.88
2022-10-06T19:54:58.978Z,1.65
2022-10-06T19:57:28.249Z,2.10
2022-10-06T19:59:55.307Z,2.30
2022-10-06T20:02:21.977Z,2.53
2022-10-06T20:04:48.656Z,2.63
2022-10-06T20:07:15.327Z,1.60
2022-10-06T20:09:42.019Z,1.98
2022-10-06T20:12:08.637Z,1.95
2022-10-06T20:14:36.189Z,2.63
2022-10-06T20:17:02.860Z,1.92
2022-10-06T20:19:29.629Z,2.53
2022-10-06T20:21:56.299Z,3.05
2022-10-06T20:24:24.662Z,3.00
2022-10-06T20:26:52.932Z,2.40
2022-10-06T20:29:25.477Z,2.40
2022-10-06T20:31:54.716Z,2.20
2022-10-06T20:34:26.642Z,2.28
2022-10-06T20:36:56.123Z,2.28
2022-10-06T20:39:41.704Z,1.83
2022-10-06T20:42:14.506Z,1.33
2022-10-06T20:44:43.135Z,1.20
2022-10-06T20:47:10.774Z,1.40
2022-10-06T20:49:37.757Z,1.90
2022-10-06T20:52:05.730Z,1.42
2022-10-06T20:54:35.594Z,1.75
2022-10-06T20:57:04.552Z,1.17
2022-10-06T20:59:31.902Z,1.10
2022-10-06T21:02:01.537Z,1.35
2022-10-06T21:04:28.367Z,1.88
2022-10-06T21:06:55.178Z,1.25
2022-10-06T21:09:22.609Z,1.20
2022-10-06T21:11:49.235Z,0.98
2022-10-06T21:14:16.034Z,1.33
2022-10-06T21:16:44.622Z,1.30
2022-10-06T21:19:14.370Z,1.13
2022-10-06T21:21:42.374Z,1.30
2022-10-06T21:24:09.743Z,1.17
2022-10-06T21:26:38.513Z,1.20
2022-10-06T21:29:05.722Z,0.88
2022-10-06T21:31:33.132Z,1.25
2022-10-06T21:34:01.186Z,1.60
2022-10-06T21:36:31.114Z,1.50
2022-10-06T21:39:00.241Z,1.40
2022-10-06T21:41:34.841Z,1.48
2022-10-06T21:44:08.761Z,2.03
2022-10-06T21:46:36.478Z,1.30
2022-10-06T21:49:05.584Z,1.40
2022-10-06T21:51:33.386Z,1.33
2022-10-06T21:54:00.825Z,1.23
2022-10-06T21:56:29.717Z,1.20
2022-10-06T21:58:56.982Z,1.10
2022-10-06T22:01:26.933Z,1.02
2022-10-06T22:03:54.464Z,1.10
2022-10-06T22:06:22.025Z,1.50
2022-10-06T22:08:49.198Z,0.93
2022-10-06T22:11:19.214Z,1.15
2022-10-06T22:13:49.292Z,1.10
2022-10-06T22:16:19.181Z,1.35
2022-10-06T22:18:46.232Z,1.00
2022-10-06T22:21:21.777Z,1.00
2022-10-06T22:23:54.993Z,1.40
2022-10-06T22:26:22.204Z,1.65
2022-10-06T22:28:50.344Z,1.13
2022-10-06T22:31:21.942Z,1.20
2022-10-06T22:33:53.266Z,1.15
2022-10-06T22:36:20.235Z,1.23
2022-10-06T22:38:47.073Z,1.00
2022-10-06T22:41:14.534Z,1.40
2022-10-06T22:43:41.191Z,1.15
2022-10-06T22:46:09.220Z,1.13
2022-10-06T22:48:36.382Z,1.42
2022-10-06T22:51:03.091Z,1.58
2022-10-06T22:53:31.104Z,1.38
2022-10-06T22:55:59.025Z,1.83
2022-10-06T22:58:26.458Z,1.58
2022-10-06T23:05:06.221Z,1.50
2022-10-06T23:07:32.999Z,1.48
2022-10-06T23:10:52.586Z,1.60
2022-10-06T23:14:10.583Z,2.00
2022-10-06T23:16:37.221Z,1.70
2022-10-06T23:19:03.806Z,2.00
2022-10-06T23:21:30.451Z,1.83
2022-10-06T23:23:59.889Z,2.28
2022-10-06T23:26:27.275Z,1.75
2022-10-06T23:28:57.906Z,1.80
2022-10-06T23:31:25.524Z,2.00
2022-10-06T23:33:53.208Z,1.92
2022-10-06T23:36:19.970Z,1.58
2022-10-06T23:38:47.399Z,1.60
2022-10-06T23:41:14.397Z,2.00
2022-10-06T23:43:41.210Z,2.17
2022-10-06T23:46:07.952Z,1.13
2022-10-06T23:48:34.663Z,1.63
2022-10-06T23:51:10.471Z,1.60
2022-10-06T23:53:37.257Z,1.90
2022-10-06T23:56:04.971Z,1.98
2022-10-06T23:58:31.927Z,2.00
